sensor_id;sensor_type;location;lat;lon;timestamp;P1;durP1;ratioP1;P2;durP2;ratioP2
68050;SDS011;54839;51.364;7.246;2023-06-26T00:01:58;9.10;;;7.07;;
68050;SDS011;54839;51.364;7.246;2023-06-26T00:04:23;6.83;;;6.33;;
68050;SDS011;54839;51.364;7.246;2023-06-26T00:06:50;6.80;;;6.20;;
68050;SDS011;54839;51.364;7.246;2023-06-26T00:09:16;6.77;;;6.27;;
68050;SDS011;54839;51.364;7.246;2023-06-26T00:11:42;7.80;;;7.20;;
68050;SDS011;54839;51.364;7.246;2023-06-26T00:14:08;7.60;;;6.90;;
68050;SDS011;54839;51.364;7.246;2023-06-26T00:16:34;7.10;;;6.50;;
68050;SDS011;54839;51.364;7.246;2023-06-26T00:18:59;7.03;;;6.10;;
68050;SDS011;54839;51.364;7.246;2023-06-26T00:21:28;7.07;;;6.37;;
68050;SDS011;54839;51.364;7.246;2023-06-26T00:23:54;6.37;;;5.87;;
68050;SDS011;54839;51.364;7.246;2023-06-26T00:26:20;7.27;;;6.67;;
68050;SDS011;54839;51.364;7.246;2023-06-26T00:28:46;7.67;;;6.97;;
68050;SDS011;54839;51.364;7.246;2023-06-26T00:31:12;8.13;;;5.97;;
68050;SDS011;54839;51.364;7.246;2023-06-26T00:33:37;6.97;;;6.37;;
68050;SDS011;54839;51.364;7.246;2023-06-26T00:36:03;7.70;;;7.10;;
68050;SDS011;54839;51.364;7.246;2023-06-26T00:38:29;6.67;;;6.07;;
68050;SDS011;54839;51.364;7.246;2023-06-26T00:40:55;6.80;;;6.30;;
68050;SDS011;54839;51.364;7.246;2023-06-26T00:43:21;6.70;;;6.10;;
68050;SDS011;54839;51.364;7.246;2023-06-26T00:45:47;7.10;;;6.40;;
68050;SDS011;54839;51.364;7.246;2023-06-26T00:48:12;8.50;;;7.37;;
68050;SDS011;54839;51.364;7.246;2023-06-26T00:50:38;7.57;;;6.97;;
68050;SDS011;54839;51.364;7.246;2023-06-26T00:53:06;6.90;;;6.30;;
68050;SDS011;54839;51.364;7.246;2023-06-26T00:55:32;6.93;;;6.33;;
68050;SDS011;54839;51.364;7.246;2023-06-26T00:57:58;7.67;;;7.07;;
68050;SDS011;54839;51.364;7.246;2023-06-26T01:00:24;7.30;;;6.40;;
68050;SDS011;54839;51.364;7.246;2023-06-26T01:02:50;7.10;;;6.53;;
68050;SDS011;54839;51.364;7.246;2023-06-26T01:05:16;7.23;;;6.63;;
68050;SDS011;54839;51.364;7.246;2023-06-26T01:07:45;6.50;;;5.90;;
68050;SDS011;54839;51.364;7.246;2023-06-26T01:10:13;6.37;;;5.87;;
68050;SDS011;54839;51.364;7.246;2023-06-26T01:12:39;5.83;;;5.33;;
68050;SDS011;54839;51.364;7.246;2023-06-26T01:15:05;5.87;;;5.37;;
68050;SDS011;54839;51.364;7.246;2023-06-26T01:17:32;7.30;;;6.70;;
68050;SDS011;54839;51.364;7.246;2023-06-26T01:20:00;8.17;;;7.47;;
68050;SDS011;54839;51.364;7.246;2023-06-26T01:25:12;7.90;;;6.37;;
68050;SDS011;54839;51.364;7.246;2023-06-26T01:27:52;7.10;;;6.60;;
68050;SDS011;54839;51.364;7.246;2023-06-26T01:30:19;9.20;;;7.30;;
68050;SDS011;54839;51.364;7.246;2023-06-26T01:32:46;8.63;;;7.03;;
68050;SDS011;54839;51.364;7.246;2023-06-26T01:35:12;6.90;;;6.13;;
68050;SDS011;54839;51.364;7.246;2023-06-26T01:37:39;6.87;;;6.37;;
68050;SDS011;54839;51.364;7.246;2023-06-26T01:40:05;8.00;;;7.30;;
68050;SDS011;54839;51.364;7.246;2023-06-26T01:42:32;6.70;;;5.97;;
68050;SDS011;54839;51.364;7.246;2023-06-26T01:44:58;7.03;;;6.50;;
68050;SDS011;54839;51.364;7.246;2023-06-26T01:47:29;6.90;;;6.30;;
68050;SDS011;54839;51.364;7.246;2023-06-26T01:53:02;7.83;;;7.13;;
68050;SDS011;54839;51.364;7.246;2023-06-26T01:55:40;7.10;;;6.50;;
68050;SDS011;54839;51.364;7.246;2023-06-26T01:58:07;7.70;;;6.93;;
68050;SDS011;54839;51.364;7.246;2023-06-26T02:00:33;7.07;;;6.47;;
68050;SDS011;54839;51.364;7.246;2023-06-26T02:03:01;9.33;;;7.37;;
68050;SDS011;54839;51.364;7.246;2023-06-26T02:05:26;7.67;;;6.97;;
68050;SDS011;54839;51.364;7.246;2023-06-26T02:07:52;6.63;;;6.03;;
68050;SDS011;54839;51.364;7.246;2023-06-26T02:10:18;8.43;;;7.30;;
68050;SDS011;54839;51.364;7.246;2023-06-26T02:12:43;6.90;;;6.20;;
68050;SDS011;54839;51.364;7.246;2023-06-26T02:15:09;6.87;;;6.27;;
68050;SDS011;54839;51.364;7.246;2023-06-26T02:17:35;7.40;;;6.80;;
68050;SDS011;54839;51.364;7.246;2023-06-26T02:20:01;7.03;;;6.43;;
68050;SDS011;54839;51.364;7.246;2023-06-26T02:22:26;7.03;;;6.43;;
68050;SDS011;54839;51.364;7.246;2023-06-26T02:24:53;7.90;;;7.20;;
68050;SDS011;54839;51.364;7.246;2023-06-26T02:27:19;7.50;;;6.57;;
68050;SDS011;54839;51.364;7.246;2023-06-26T02:29:45;6.60;;;6.00;;
68050;SDS011;54839;51.364;7.246;2023-06-26T02:32:11;7.30;;;6.70;;
68050;SDS011;54839;51.364;7.246;2023-06-26T02:34:36;7.03;;;6.43;;
68050;SDS011;54839;51.364;7.246;2023-06-26T02:37:02;7.73;;;6.20;;
68050;SDS011;54839;51.364;7.246;2023-06-26T02:39:28;7.93;;;7.10;;
68050;SDS011;54839;51.364;7.246;2023-06-26T02:41:54;7.40;;;6.77;;
68050;SDS011;54839;51.364;7.246;2023-06-26T02:44:21;7.33;;;6.73;;
68050;SDS011;54839;51.364;7.246;2023-06-26T02:46:46;7.17;;;6.47;;
68050;SDS011;54839;51.364;7.246;2023-06-26T02:49:12;6.90;;;6.30;;
68050;SDS011;54839;51.364;7.246;2023-06-26T02:51:38;6.87;;;6.30;;
68050;SDS011;54839;51.364;7.246;2023-06-26T02:54:04;7.40;;;6.80;;
68050;SDS011;54839;51.364;7.246;2023-06-26T02:56:30;6.43;;;5.93;;
68050;SDS011;54839;51.364;7.246;2023-06-26T02:58:59;6.90;;;6.40;;
68050;SDS011;54839;51.364;7.246;2023-06-26T03:01:25;6.77;;;5.87;;
68050;SDS011;54839;51.364;7.246;2023-06-26T03:03:51;6.80;;;6.10;;
68050;SDS011;54839;51.364;7.246;2023-06-26T03:06:17;7.43;;;6.67;;
68050;SDS011;54839;51.364;7.246;2023-06-26T03:08:43;7.43;;;6.73;;
68050;SDS011;54839;51.364;7.246;2023-06-26T03:11:09;8.13;;;7.27;;
68050;SDS011;54839;51.364;7.246;2023-06-26T03:13:36;6.80;;;6.30;;
68050;SDS011;54839;51.364;7.246;2023-06-26T03:16:04;7.70;;;6.23;;
68050;SDS011;54839;51.364;7.246;2023-06-26T03:18:30;7.30;;;6.60;;
68050;SDS011;54839;51.364;7.246;2023-06-26T03:20:57;6.97;;;6.27;;
68050;SDS011;54839;51.364;7.246;2023-06-26T03:23:24;6.63;;;6.07;;
68050;SDS011;54839;51.364;7.246;2023-06-26T03:25:50;7.47;;;6.77;;
68050;SDS011;54839;51.364;7.246;2023-06-26T03:28:16;7.63;;;6.70;;
68050;SDS011;54839;51.364;7.246;2023-06-26T03:30:42;6.63;;;5.90;;
68050;SDS011;54839;51.364;7.246;2023-06-26T03:33:08;7.50;;;6.80;;
68050;SDS011;54839;51.364;7.246;2023-06-26T03:35:34;6.40;;;5.90;;
68050;SDS011;54839;51.364;7.246;2023-06-26T03:38:00;5.67;;;5.27;;
68050;SDS011;54839;51.364;7.246;2023-06-26T03:40:26;6.33;;;5.77;;
68050;SDS011;54839;51.364;7.246;2023-06-26T03:42:52;7.07;;;6.47;;
68050;SDS011;54839;51.364;7.246;2023-06-26T03:45:18;9.47;;;6.03;;
68050;SDS011;54839;51.364;7.246;2023-06-26T03:47:44;6.90;;;6.30;;
68050;SDS011;54839;51.364;7.246;2023-06-26T03:50:13;6.70;;;6.07;;
68050;SDS011;54839;51.364;7.246;2023-06-26T03:52:41;6.90;;;6.30;;
68050;SDS011;54839;51.364;7.246;2023-06-26T03:55:07;7.57;;;6.87;;
68050;SDS011;54839;51.364;7.246;2023-06-26T03:57:33;6.17;;;5.67;;
68050;SDS011;54839;51.364;7.246;2023-06-26T03:59:59;8.23;;;6.37;;
68050;SDS011;54839;51.364;7.246;2023-06-26T04:02:25;7.00;;;6.10;;
68050;SDS011;54839;51.364;7.246;2023-06-26T04:04:53;8.23;;;7.30;;
68050;SDS011;54839;51.364;7.246;2023-06-26T04:07:19;8.07;;;6.63;;
68050;SDS011;54839;51.364;7.246;2023-06-26T04:09:44;6.77;;;6.27;;
68050;SDS011;54839;51.364;7.246;2023-06-26T04:12:10;7.50;;;5.80;;
68050;SDS011;54839;51.364;7.246;2023-06-26T04:14:36;6.70;;;6.00;;
68050;SDS011;54839;51.364;7.246;2023-06-26T04:17:02;7.60;;;6.73;;
68050;SDS011;54839;51.364;7.246;2023-06-26T04:19:30;8.53;;;7.10;;
68050;SDS011;54839;51.364;7.246;2023-06-26T04:22:00;8.37;;;6.03;;
68050;SDS011;54839;51.364;7.246;2023-06-26T04:24:26;6.97;;;6.20;;
68050;SDS011;54839;51.364;7.246;2023-06-26T04:26:52;7.10;;;6.50;;
68050;SDS011;54839;51.364;7.246;2023-06-26T04:29:17;7.30;;;6.60;;
68050;SDS011;54839;51.364;7.246;2023-06-26T04:31:43;8.17;;;7.37;;
68050;SDS011;54839;51.364;7.246;2023-06-26T04:34:11;7.67;;;6.97;;
68050;SDS011;54839;51.364;7.246;2023-06-26T04:36:38;6.77;;;6.20;;
68050;SDS011;54839;51.364;7.246;2023-06-26T04:39:04;7.50;;;6.80;;
68050;SDS011;54839;51.364;7.246;2023-06-26T04:41:31;7.10;;;6.50;;
68050;SDS011;54839;51.364;7.246;2023-06-26T04:43:57;8.63;;;7.60;;
68050;SDS011;54839;51.364;7.246;2023-06-26T04:46:22;7.53;;;6.70;;
68050;SDS011;54839;51.364;7.246;2023-06-26T04:48:48;8.50;;;6.67;;
68050;SDS011;54839;51.364;7.246;2023-06-26T04:51:14;12.80;;;8.60;;
68050;SDS011;54839;51.364;7.246;2023-06-26T04:53:40;8.63;;;7.63;;
68050;SDS011;54839;51.364;7.246;2023-06-26T04:56:05;7.73;;;7.07;;
68050;SDS011;54839;51.364;7.246;2023-06-26T04:58:31;8.60;;;7.67;;
68050;SDS011;54839;51.364;7.246;2023-06-26T05:00:57;8.40;;;7.40;;
68050;SDS011;54839;51.364;7.246;2023-06-26T05:03:23;9.47;;;8.57;;
68050;SDS011;54839;51.364;7.246;2023-06-26T05:05:49;10.30;;;8.87;;
68050;SDS011;54839;51.364;7.246;2023-06-26T05:10:46;8.80;;;8.00;;
68050;SDS011;54839;51.364;7.246;2023-06-26T05:13:12;10.40;;;8.70;;
68050;SDS011;54839;51.364;7.246;2023-06-26T05:15:40;9.83;;;8.80;;
68050;SDS011;54839;51.364;7.246;2023-06-26T05:18:07;9.63;;;8.73;;
68050;SDS011;54839;51.364;7.246;2023-06-26T05:20:33;11.23;;;8.70;;
68050;SDS011;54839;51.364;7.246;2023-06-26T05:23:01;9.60;;;8.70;;
68050;SDS011;54839;51.364;7.246;2023-06-26T05:25:28;9.40;;;8.47;;
68050;SDS011;54839;51.364;7.246;2023-06-26T05:27:55;13.77;;;9.17;;
68050;SDS011;54839;51.364;7.246;2023-06-26T05:30:22;10.73;;;9.30;;
68050;SDS011;54839;51.364;7.246;2023-06-26T05:32:50;9.53;;;8.43;;
68050;SDS011;54839;51.364;7.246;2023-06-26T05:35:18;7.93;;;7.23;;
68050;SDS011;54839;51.364;7.246;2023-06-26T05:37:46;9.20;;;7.43;;
68050;SDS011;54839;51.364;7.246;2023-06-26T05:40:19;9.93;;;7.90;;
68050;SDS011;54839;51.364;7.246;2023-06-26T05:42:45;9.10;;;8.20;;
68050;SDS011;54839;51.364;7.246;2023-06-26T05:45:11;12.03;;;7.33;;
68050;SDS011;54839;51.364;7.246;2023-06-26T05:47:37;8.07;;;7.30;;
68050;SDS011;54839;51.364;7.246;2023-06-26T05:50:06;9.53;;;7.50;;
68050;SDS011;54839;51.364;7.246;2023-06-26T05:52:33;7.90;;;7.20;;
68050;SDS011;54839;51.364;7.246;2023-06-26T05:54:59;10.80;;;7.77;;
68050;SDS011;54839;51.364;7.246;2023-06-26T05:57:26;7.47;;;6.63;;
68050;SDS011;54839;51.364;7.246;2023-06-26T05:59:53;6.63;;;5.30;;
68050;SDS011;54839;51.364;7.246;2023-06-26T06:02:19;10.23;;;6.60;;
68050;SDS011;54839;51.364;7.246;2023-06-26T06:04:45;7.53;;;6.20;;
68050;SDS011;54839;51.364;7.246;2023-06-26T06:07:11;12.57;;;7.10;;
68050;SDS011;54839;51.364;7.246;2023-06-26T06:09:37;13.07;;;7.17;;
68050;SDS011;54839;51.364;7.246;2023-06-26T06:12:04;8.10;;;5.90;;
68050;SDS011;54839;51.364;7.246;2023-06-26T06:14:36;9.30;;;6.83;;
68050;SDS011;54839;51.364;7.246;2023-06-26T06:17:02;9.90;;;5.60;;
68050;SDS011;54839;51.364;7.246;2023-06-26T06:19:28;7.20;;;6.17;;
68050;SDS011;54839;51.364;7.246;2023-06-26T06:21:54;7.30;;;6.40;;
68050;SDS011;54839;51.364;7.246;2023-06-26T06:24:19;9.83;;;6.73;;
68050;SDS011;54839;51.364;7.246;2023-06-26T06:26:45;13.63;;;8.03;;
68050;SDS011;54839;51.364;7.246;2023-06-26T06:29:11;13.40;;;6.90;;
68050;SDS011;54839;51.364;7.246;2023-06-26T06:31:37;11.83;;;7.40;;
68050;SDS011;54839;51.364;7.246;2023-06-26T06:34:02;9.13;;;5.83;;
68050;SDS011;54839;51.364;7.246;2023-06-26T06:36:28;8.50;;;6.40;;
68050;SDS011;54839;51.364;7.246;2023-06-26T06:38:54;8.80;;;6.80;;
68050;SDS011;54839;51.364;7.246;2023-06-26T06:41:20;8.80;;;7.90;;
68050;SDS011;54839;51.364;7.246;2023-06-26T06:43:46;10.27;;;6.27;;
68050;SDS011;54839;51.364;7.246;2023-06-26T06:46:12;10.20;;;6.97;;
68050;SDS011;54839;51.364;7.246;2023-06-26T06:48:38;10.00;;;6.57;;
68050;SDS011;54839;51.364;7.246;2023-06-26T06:51:04;6.80;;;5.73;;
68050;SDS011;54839;51.364;7.246;2023-06-26T06:53:30;8.63;;;6.40;;
68050;SDS011;54839;51.364;7.246;2023-06-26T06:55:57;8.63;;;6.90;;
68050;SDS011;54839;51.364;7.246;2023-06-26T06:58:24;8.90;;;6.77;;
68050;SDS011;54839;51.364;7.246;2023-06-26T07:00:50;15.70;;;7.00;;
68050;SDS011;54839;51.364;7.246;2023-06-26T07:03:17;8.80;;;6.20;;
68050;SDS011;54839;51.364;7.246;2023-06-26T07:05:42;12.17;;;6.17;;
68050;SDS011;54839;51.364;7.246;2023-06-26T07:08:08;8.50;;;6.80;;
68050;SDS011;54839;51.364;7.246;2023-06-26T07:10:34;9.60;;;7.00;;
68050;SDS011;54839;51.364;7.246;2023-06-26T07:13:00;9.77;;;7.30;;
68050;SDS011;54839;51.364;7.246;2023-06-26T07:15:25;8.83;;;6.50;;
68050;SDS011;54839;51.364;7.246;2023-06-26T07:17:51;6.90;;;5.40;;
68050;SDS011;54839;51.364;7.246;2023-06-26T07:20:17;14.60;;;6.70;;
68050;SDS011;54839;51.364;7.246;2023-06-26T07:22:43;8.07;;;6.13;;
68050;SDS011;54839;51.364;7.246;2023-06-26T07:25:10;11.77;;;6.47;;
68050;SDS011;54839;51.364;7.246;2023-06-26T07:27:40;12.07;;;7.40;;
68050;SDS011;54839;51.364;7.246;2023-06-26T07:30:06;10.97;;;6.40;;
68050;SDS011;54839;51.364;7.246;2023-06-26T07:32:36;11.30;;;6.87;;
68050;SDS011;54839;51.364;7.246;2023-06-26T07:35:02;14.03;;;6.90;;
68050;SDS011;54839;51.364;7.246;2023-06-26T07:37:28;9.40;;;6.67;;
68050;SDS011;54839;51.364;7.246;2023-06-26T07:39:54;10.07;;;6.77;;
68050;SDS011;54839;51.364;7.246;2023-06-26T07:42:20;8.50;;;6.60;;
68050;SDS011;54839;51.364;7.246;2023-06-26T07:44:46;12.13;;;7.03;;
68050;SDS011;54839;51.364;7.246;2023-06-26T07:47:12;10.43;;;7.20;;
68050;SDS011;54839;51.364;7.246;2023-06-26T07:49:40;7.33;;;6.50;;
68050;SDS011;54839;51.364;7.246;2023-06-26T07:52:05;7.40;;;6.50;;
68050;SDS011;54839;51.364;7.246;2023-06-26T07:54:31;9.03;;;7.30;;
68050;SDS011;54839;51.364;7.246;2023-06-26T07:56:58;13.50;;;8.03;;
68050;SDS011;54839;51.364;7.246;2023-06-26T07:59:26;8.27;;;6.90;;
68050;SDS011;54839;51.364;7.246;2023-06-26T08:01:53;10.07;;;7.67;;
68050;SDS011;54839;51.364;7.246;2023-06-26T08:04:21;10.20;;;7.17;;
68050;SDS011;54839;51.364;7.246;2023-06-26T08:06:49;12.00;;;9.03;;
68050;SDS011;54839;51.364;7.246;2023-06-26T08:09:16;8.03;;;7.23;;
68050;SDS011;54839;51.364;7.246;2023-06-26T08:11:43;12.20;;;7.70;;
68050;SDS011;54839;51.364;7.246;2023-06-26T08:14:09;13.50;;;8.20;;
68050;SDS011;54839;51.364;7.246;2023-06-26T08:16:37;12.93;;;8.53;;
68050;SDS011;54839;51.364;7.246;2023-06-26T08:19:03;13.50;;;8.00;;
68050;SDS011;54839;51.364;7.246;2023-06-26T08:21:29;11.10;;;7.57;;
68050;SDS011;54839;51.364;7.246;2023-06-26T08:23:55;10.47;;;9.00;;
68050;SDS011;54839;51.364;7.246;2023-06-26T08:26:21;11.47;;;6.37;;
68050;SDS011;54839;51.364;7.246;2023-06-26T08:28:46;10.03;;;7.80;;
68050;SDS011;54839;51.364;7.246;2023-06-26T08:31:12;8.47;;;7.00;;
68050;SDS011;54839;51.364;7.246;2023-06-26T08:33:38;20.67;;;10.43;;
68050;SDS011;54839;51.364;7.246;2023-06-26T08:36:03;13.27;;;8.70;;
68050;SDS011;54839;51.364;7.246;2023-06-26T08:38:29;9.50;;;8.60;;
68050;SDS011;54839;51.364;7.246;2023-06-26T08:40:55;14.23;;;9.63;;
68050;SDS011;54839;51.364;7.246;2023-06-26T08:43:20;14.00;;;11.00;;
68050;SDS011;54839;51.364;7.246;2023-06-26T08:45:47;15.07;;;12.50;;
68050;SDS011;54839;51.364;7.246;2023-06-26T08:48:16;20.60;;;15.03;;
68050;SDS011;54839;51.364;7.246;2023-06-26T08:50:43;19.23;;;17.17;;
68050;SDS011;54839;51.364;7.246;2023-06-26T08:55:52;17.43;;;15.33;;
68050;SDS011;54839;51.364;7.246;2023-06-26T08:58:19;18.70;;;11.97;;
68050;SDS011;54839;51.364;7.246;2023-06-26T09:00:45;17.67;;;11.90;;
68050;SDS011;54839;51.364;7.246;2023-06-26T09:03:10;19.80;;;15.63;;
68050;SDS011;54839;51.364;7.246;2023-06-26T09:05:38;15.73;;;14.00;;
68050;SDS011;54839;51.364;7.246;2023-06-26T09:08:04;16.00;;;14.33;;
68050;SDS011;54839;51.364;7.246;2023-06-26T09:10:30;17.60;;;14.53;;
68050;SDS011;54839;51.364;7.246;2023-06-26T09:12:56;13.40;;;11.90;;
68050;SDS011;54839;51.364;7.246;2023-06-26T09:15:22;13.33;;;9.80;;
68050;SDS011;54839;51.364;7.246;2023-06-26T09:17:49;16.93;;;11.17;;
68050;SDS011;54839;51.364;7.246;2023-06-26T09:20:15;11.50;;;10.10;;
68050;SDS011;54839;51.364;7.246;2023-06-26T09:22:43;12.60;;;8.30;;
68050;SDS011;54839;51.364;7.246;2023-06-26T09:25:13;10.53;;;9.53;;
68050;SDS011;54839;51.364;7.246;2023-06-26T09:27:39;14.53;;;12.23;;
68050;SDS011;54839;51.364;7.246;2023-06-26T09:30:07;13.60;;;11.70;;
68050;SDS011;54839;51.364;7.246;2023-06-26T09:32:34;14.20;;;10.63;;
68050;SDS011;54839;51.364;7.246;2023-06-26T09:35:01;14.97;;;10.37;;
68050;SDS011;54839;51.364;7.246;2023-06-26T09:37:28;24.20;;;9.93;;
68050;SDS011;54839;51.364;7.246;2023-06-26T09:39:54;13.20;;;9.03;;
68050;SDS011;54839;51.364;7.246;2023-06-26T09:42:22;13.90;;;9.27;;
68050;SDS011;54839;51.364;7.246;2023-06-26T09:44:49;10.10;;;7.33;;
68050;SDS011;54839;51.364;7.246;2023-06-26T09:47:16;10.33;;;7.30;;
68050;SDS011;54839;51.364;7.246;2023-06-26T09:49:43;18.00;;;6.23;;
68050;SDS011;54839;51.364;7.246;2023-06-26T09:52:09;9.67;;;7.53;;
68050;SDS011;54839;51.364;7.246;2023-06-26T09:54:36;8.43;;;7.10;;
68050;SDS011;54839;51.364;7.246;2023-06-26T09:57:35;12.63;;;7.70;;
68050;SDS011;54839;51.364;7.246;2023-06-26T09:59:53;10.87;;;7.73;;
68050;SDS011;54839;51.364;7.246;2023-06-26T10:02:19;11.17;;;7.00;;
68050;SDS011;54839;51.364;7.246;2023-06-26T10:04:45;13.17;;;6.40;;
68050;SDS011;54839;51.364;7.246;2023-06-26T10:07:11;8.10;;;6.13;;
68050;SDS011;54839;51.364;7.246;2023-06-26T10:09:37;13.23;;;5.90;;
68050;SDS011;54839;51.364;7.246;2023-06-26T10:12:17;8.07;;;5.60;;
68050;SDS011;54839;51.364;7.246;2023-06-26T10:14:44;10.90;;;5.20;;
68050;SDS011;54839;51.364;7.246;2023-06-26T10:17:11;9.97;;;5.40;;
68050;SDS011;54839;51.364;7.246;2023-06-26T10:19:41;8.70;;;5.33;;
68050;SDS011;54839;51.364;7.246;2023-06-26T10:22:09;10.03;;;6.40;;
68050;SDS011;54839;51.364;7.246;2023-06-26T10:24:39;9.17;;;6.40;;
68050;SDS011;54839;51.364;7.246;2023-06-26T10:27:19;14.87;;;5.37;;
68050;SDS011;54839;51.364;7.246;2023-06-26T10:30:05;8.60;;;4.93;;
68050;SDS011;54839;51.364;7.246;2023-06-26T10:32:34;6.47;;;5.07;;
68050;SDS011;54839;51.364;7.246;2023-06-26T10:35:01;7.20;;;4.83;;
68050;SDS011;54839;51.364;7.246;2023-06-26T10:40:27;9.40;;;4.53;;
68050;SDS011;54839;51.364;7.246;2023-06-26T10:43:06;6.93;;;4.90;;
68050;SDS011;54839;51.364;7.246;2023-06-26T10:45:36;5.63;;;4.50;;
68050;SDS011;54839;51.364;7.246;2023-06-26T10:48:08;10.50;;;5.20;;
68050;SDS011;54839;51.364;7.246;2023-06-26T10:50:34;7.67;;;4.50;;
68050;SDS011;54839;51.364;7.246;2023-06-26T10:53:09;11.93;;;5.40;;
68050;SDS011;54839;51.364;7.246;2023-06-26T10:55:41;5.83;;;3.27;;
68050;SDS011;54839;51.364;7.246;2023-06-26T10:58:50;8.30;;;4.53;;
68050;SDS011;54839;51.364;7.246;2023-06-26T11:03:44;9.03;;;4.83;;
68050;SDS011;54839;51.364;7.246;2023-06-26T11:06:16;6.37;;;4.20;;
68050;SDS011;54839;51.364;7.246;2023-06-26T11:08:50;5.03;;;4.10;;
68050;SDS011;54839;51.364;7.246;2023-06-26T11:11:20;4.87;;;3.87;;
68050;SDS011;54839;51.364;7.246;2023-06-26T11:13:47;12.27;;;4.87;;
68050;SDS011;54839;51.364;7.246;2023-06-26T11:16:13;7.57;;;4.13;;
68050;SDS011;54839;51.364;7.246;2023-06-26T11:18:40;7.87;;;4.47;;
68050;SDS011;54839;51.364;7.246;2023-06-26T11:21:10;17.00;;;4.27;;
68050;SDS011;54839;51.364;7.246;2023-06-26T11:23:38;5.30;;;4.07;;
68050;SDS011;54839;51.364;7.246;2023-06-26T11:26:18;8.47;;;4.40;;
68050;SDS011;54839;51.364;7.246;2023-06-26T11:28:56;8.30;;;3.80;;
68050;SDS011;54839;51.364;7.246;2023-06-26T11:31:30;7.57;;;3.60;;
68050;SDS011;54839;51.364;7.246;2023-06-26T11:34:00;8.73;;;3.63;;
68050;SDS011;54839;51.364;7.246;2023-06-26T11:36:30;5.87;;;3.00;;
68050;SDS011;54839;51.364;7.246;2023-06-26T11:39:00;15.93;;;3.77;;
68050;SDS011;54839;51.364;7.246;2023-06-26T11:41:28;8.20;;;3.50;;
68050;SDS011;54839;51.364;7.246;2023-06-26T11:43:55;16.40;;;4.70;;
68050;SDS011;54839;51.364;7.246;2023-06-26T11:46:25;4.93;;;3.00;;
68050;SDS011;54839;51.364;7.246;2023-06-26T11:48:51;3.50;;;3.00;;
68050;SDS011;54839;51.364;7.246;2023-06-26T11:51:17;4.90;;;3.20;;
68050;SDS011;54839;51.364;7.246;2023-06-26T11:53:43;3.70;;;3.23;;
68050;SDS011;54839;51.364;7.246;2023-06-26T11:56:14;14.93;;;4.70;;
68050;SDS011;54839;51.364;7.246;2023-06-26T11:59:00;4.30;;;3.30;;
68050;SDS011;54839;51.364;7.246;2023-06-26T12:01:34;5.23;;;2.50;;
68050;SDS011;54839;51.364;7.246;2023-06-26T12:04:02;10.00;;;2.97;;
68050;SDS011;54839;51.364;7.246;2023-06-26T12:06:30;4.07;;;2.60;;
68050;SDS011;54839;51.364;7.246;2023-06-26T12:08:58;5.47;;;2.53;;
68050;SDS011;54839;51.364;7.246;2023-06-26T12:11:26;4.87;;;2.50;;
68050;SDS011;54839;51.364;7.246;2023-06-26T12:13:54;2.73;;;1.90;;
68050;SDS011;54839;51.364;7.246;2023-06-26T12:16:20;4.40;;;2.70;;
68050;SDS011;54839;51.364;7.246;2023-06-26T12:18:46;9.60;;;2.90;;
68050;SDS011;54839;51.364;7.246;2023-06-26T12:21:54;12.57;;;2.13;;
68050;SDS011;54839;51.364;7.246;2023-06-26T12:24:05;6.70;;;2.20;;
68050;SDS011;54839;51.364;7.246;2023-06-26T12:26:33;4.67;;;2.50;;
68050;SDS011;54839;51.364;7.246;2023-06-26T12:29:28;6.50;;;2.80;;
68050;SDS011;54839;51.364;7.246;2023-06-26T12:31:54;4.10;;;2.17;;
68050;SDS011;54839;51.364;7.246;2023-06-26T12:34:20;4.40;;;2.33;;
68050;SDS011;54839;51.364;7.246;2023-06-26T12:36:49;3.80;;;2.00;;
68050;SDS011;54839;51.364;7.246;2023-06-26T12:39:21;3.03;;;2.17;;
68050;SDS011;54839;51.364;7.246;2023-06-26T12:44:17;2.90;;;1.33;;
68050;SDS011;54839;51.364;7.246;2023-06-26T12:46:46;4.30;;;1.73;;
68050;SDS011;54839;51.364;7.246;2023-06-26T12:49:13;8.90;;;2.63;;
68050;SDS011;54839;51.364;7.246;2023-06-26T12:51:39;5.70;;;2.03;;
68050;SDS011;54839;51.364;7.246;2023-06-26T12:54:05;3.53;;;1.93;;
68050;SDS011;54839;51.364;7.246;2023-06-26T12:56:32;11.90;;;1.70;;
68050;SDS011;54839;51.364;7.246;2023-06-26T12:58:57;3.90;;;2.40;;
68050;SDS011;54839;51.364;7.246;2023-06-26T13:01:23;2.87;;;1.20;;
68050;SDS011;54839;51.364;7.246;2023-06-26T13:03:49;3.70;;;1.77;;
68050;SDS011;54839;51.364;7.246;2023-06-26T13:06:16;1.77;;;1.50;;
68050;SDS011;54839;51.364;7.246;2023-06-26T13:08:42;5.07;;;1.23;;
68050;SDS011;54839;51.364;7.246;2023-06-26T13:11:08;2.70;;;1.30;;
68050;SDS011;54839;51.364;7.246;2023-06-26T13:13:34;4.03;;;1.70;;
68050;SDS011;54839;51.364;7.246;2023-06-26T13:16:00;4.57;;;1.70;;
68050;SDS011;54839;51.364;7.246;2023-06-26T13:18:25;3.27;;;1.40;;
68050;SDS011;54839;51.364;7.246;2023-06-26T13:20:51;4.20;;;1.80;;
68050;SDS011;54839;51.364;7.246;2023-06-26T13:23:17;2.90;;;2.10;;
68050;SDS011;54839;51.364;7.246;2023-06-26T13:25:44;1.73;;;1.33;;
68050;SDS011;54839;51.364;7.246;2023-06-26T13:28:10;2.53;;;1.33;;
68050;SDS011;54839;51.364;7.246;2023-06-26T13:30:35;3.77;;;1.63;;
68050;SDS011;54839;51.364;7.246;2023-06-26T13:33:01;9.20;;;1.73;;
68050;SDS011;54839;51.364;7.246;2023-06-26T13:35:27;6.20;;;1.90;;
68050;SDS011;54839;51.364;7.246;2023-06-26T13:37:53;4.77;;;1.83;;
68050;SDS011;54839;51.364;7.246;2023-06-26T13:40:18;10.37;;;1.53;;
68050;SDS011;54839;51.364;7.246;2023-06-26T13:42:44;6.30;;;1.70;;
68050;SDS011;54839;51.364;7.246;2023-06-26T13:45:10;4.13;;;1.60;;
68050;SDS011;54839;51.364;7.246;2023-06-26T13:47:36;3.80;;;1.20;;
68050;SDS011;54839;51.364;7.246;2023-06-26T13:50:06;3.13;;;1.20;;
68050;SDS011;54839;51.364;7.246;2023-06-26T13:52:32;1.73;;;1.20;;
68050;SDS011;54839;51.364;7.246;2023-06-26T13:54:58;4.83;;;1.30;;
68050;SDS011;54839;51.364;7.246;2023-06-26T13:57:24;4.10;;;1.37;;
68050;SDS011;54839;51.364;7.246;2023-06-26T13:59:49;3.97;;;1.60;;
68050;SDS011;54839;51.364;7.246;2023-06-26T14:02:15;1.83;;;1.17;;
68050;SDS011;54839;51.364;7.246;2023-06-26T14:04:41;5.87;;;1.60;;
68050;SDS011;54839;51.364;7.246;2023-06-26T14:07:06;1.53;;;1.20;;
68050;SDS011;54839;51.364;7.246;2023-06-26T14:09:32;1.97;;;1.50;;
68050;SDS011;54839;51.364;7.246;2023-06-26T14:11:58;5.83;;;1.30;;
68050;SDS011;54839;51.364;7.246;2023-06-26T14:14:24;4.13;;;1.70;;
68050;SDS011;54839;51.364;7.246;2023-06-26T14:16:49;1.60;;;1.40;;
68050;SDS011;54839;51.364;7.246;2023-06-26T14:19:15;2.50;;;1.50;;
68050;SDS011;54839;51.364;7.246;2023-06-26T14:21:42;2.83;;;1.73;;
68050;SDS011;54839;51.364;7.246;2023-06-26T14:24:08;3.10;;;1.70;;
68050;SDS011;54839;51.364;7.246;2023-06-26T14:26:34;4.67;;;1.50;;
68050;SDS011;54839;51.364;7.246;2023-06-26T14:29:02;1.50;;;1.20;;
68050;SDS011;54839;51.364;7.246;2023-06-26T14:31:28;4.30;;;1.80;;
68050;SDS011;54839;51.364;7.246;2023-06-26T14:33:53;4.20;;;1.20;;
68050;SDS011;54839;51.364;7.246;2023-06-26T14:36:19;5.90;;;1.60;;
68050;SDS011;54839;51.364;7.246;2023-06-26T14:38:45;4.17;;;1.80;;
68050;SDS011;54839;51.364;7.246;2023-06-26T14:41:11;3.43;;;1.20;;
68050;SDS011;54839;51.364;7.246;2023-06-26T14:43:38;2.00;;;1.53;;
68050;SDS011;54839;51.364;7.246;2023-06-26T14:46:03;2.87;;;1.43;;
68050;SDS011;54839;51.364;7.246;2023-06-26T14:48:29;2.30;;;1.30;;
68050;SDS011;54839;51.364;7.246;2023-06-26T14:50:55;3.20;;;1.90;;
68050;SDS011;54839;51.364;7.246;2023-06-26T14:53:20;2.90;;;1.50;;
68050;SDS011;54839;51.364;7.246;2023-06-26T14:55:46;5.60;;;1.80;;
68050;SDS011;54839;51.364;7.246;2023-06-26T14:58:12;2.77;;;1.27;;
68050;SDS011;54839;51.364;7.246;2023-06-26T15:00:37;2.17;;;1.37;;
68050;SDS011;54839;51.364;7.246;2023-06-26T15:03:03;3.60;;;1.57;;